createdAt,value
2023-02-06T00:00:49.068Z,0
2023-02-06T00:01:49.974Z,0
2023-02-06T00:02:51.089Z,0
2023-02-06T00:03:51.323Z,0
2023-02-06T00:04:51.377Z,0
2023-02-06T00:05:52.974Z,0
2023-02-06T00:06:52.976Z,0
2023-02-06T00:07:53.365Z,0
2023-02-06T00:08:53.719Z,0
2023-02-06T00:09:55.416Z,0
2023-02-06T00:10:55.367Z,0
2023-02-06T00:11:56.341Z,0
2023-02-06T00:12:56.263Z,0
2023-02-06T00:13:57.213Z,0
2023-02-06T00:14:58.200Z,0
2023-02-06T00:15:58.819Z,0
2023-02-06T00:16:59.021Z,0
2023-02-06T00:17:59.398Z,0
2023-02-06T00:19:00.892Z,0
2023-02-06T00:20:00.798Z,0
2023-02-06T00:21:01.138Z,0
2023-02-06T00:22:02.083Z,0
2023-02-06T00:23:03.017Z,0
2023-02-06T00:24:03.696Z,0
2023-02-06T00:25:04.080Z,0
2023-02-06T00:26:04.021Z,0
2023-02-06T00:27:04.624Z,0
2023-02-06T00:28:04.748Z,0
2023-02-06T00:29:05.139Z,0
2023-02-06T00:30:06.413Z,0
2023-02-06T00:31:07.167Z,0
2023-02-06T00:32:06.569Z,0
2023-02-06T00:33:06.979Z,0
2023-02-06T00:34:08.193Z,0
2023-02-06T00:35:09.461Z,0
2023-02-06T00:36:09.651Z,0
2023-02-06T00:37:10.132Z,0
2023-02-06T00:38:10.060Z,0
2023-02-06T00:39:10.692Z,0
2023-02-06T00:40:11.937Z,0
2023-02-06T00:41:12.315Z,0
2023-02-06T00:42:12.931Z,0
2023-02-06T00:43:12.623Z,0
2023-02-06T00:44:12.989Z,0
2023-02-06T00:45:13.458Z,0
2023-02-06T00:46:14.592Z,0
2023-02-06T00:47:14.573Z,0
2023-02-06T00:48:14.487Z,0
2023-02-06T00:49:15.949Z,0
2023-02-06T00:50:16.211Z,0
2023-02-06T00:51:16.427Z,0
2023-02-06T00:52:16.637Z,0
2023-02-06T00:53:17.853Z,0
2023-02-06T00:54:17.753Z,0
2023-02-06T00:55:18.788Z,0
2023-02-06T00:56:19.306Z,0
2023-02-06T00:57:19.272Z,0
2023-02-06T00:58:19.898Z,0
2023-02-06T00:59:21.419Z,0
2023-02-06T01:00:21.621Z,0
2023-02-06T01:01:21.260Z,0
2023-02-06T01:02:22.579Z,0
2023-02-06T01:03:22.561Z,0
2023-02-06T01:04:23.494Z,0
2023-02-06T01:05:23.350Z,0
2023-02-06T01:06:24.854Z,0
2023-02-06T01:07:24.761Z,0
2023-02-06T01:08:24.966Z,0
2023-02-06T01:09:25.443Z,0
2023-02-06T01:10:25.669Z,0
2023-02-06T01:11:26.652Z,0
2023-02-06T01:12:26.924Z,0
2023-02-06T01:13:26.835Z,0
2023-02-06T01:14:28.053Z,0
2023-02-06T01:15:28.348Z,0
2023-02-06T01:16:28.713Z,0
2023-02-06T01:17:28.643Z,0
2023-02-06T01:18:29.558Z,0
2023-02-06T01:19:29.759Z,0
2023-02-06T01:20:29.676Z,0
2023-02-06T01:21:30.601Z,0
2023-02-06T01:22:30.813Z,0
2023-02-06T01:23:31.286Z,0
2023-02-06T01:24:32.198Z,0
2023-02-06T01:25:32.281Z,0
2023-02-06T01:26:33.038Z,0
2023-02-06T01:27:33.681Z,0
2023-02-06T01:28:33.893Z,0
2023-02-06T01:29:33.822Z,0
2023-02-06T01:30:34.839Z,0
2023-02-06T01:31:36.103Z,0
2023-02-06T01:32:36.415Z,0
2023-02-06T01:33:35.752Z,0
2023-02-06T01:34:36.947Z,0
2023-02-06T01:35:37.794Z,0
2023-02-06T01:36:38.306Z,0
2023-02-06T01:37:38.504Z,0
2023-02-06T01:38:38.495Z,0
2023-02-06T01:39:39.698Z,0
2023-02-06T01:40:40.265Z,0
2023-02-06T01:41:40.476Z,0
2023-02-06T01:42:41.264Z,0
2023-02-06T01:43:42.480Z,0
2023-02-06T01:44:42.418Z,0
2023-02-06T01:45:44.049Z,0
2023-02-06T01:46:44.540Z,0
2023-02-06T01:47:44.878Z,0
2023-02-06T01:48:45.374Z,0
2023-02-06T01:49:45.583Z,0
2023-02-06T01:50:46.792Z,0
2023-02-06T01:51:47.279Z,0
2023-02-06T01:52:46.899Z,0
2023-02-06T01:53:47.818Z,0
2023-02-06T01:54:48.297Z,0
2023-02-06T01:55:48.665Z,0
2023-02-06T01:56:48.961Z,0
2023-02-06T01:57:49.211Z,0
2023-02-06T01:58:49.139Z,0
2023-02-06T01:59:50.076Z,0
2023-02-06T02:00:50.549Z,0
2023-02-06T02:01:51.047Z,0
2023-02-06T02:02:51.003Z,0
2023-02-06T02:03:50.917Z,0
2023-02-06T02:04:52.127Z,0
2023-02-06T02:05:53.172Z,0
2023-02-06T02:06:54.089Z,0
2023-02-06T02:07:54.701Z,0
2023-02-06T02:08:58.112Z,0
2023-02-06T02:09:56.497Z,0
2023-02-06T02:11:02.709Z,0
2023-02-06T02:11:57.240Z,0
2023-02-06T02:12:57.317Z,0
2023-02-06T02:13:57.809Z,0
2023-02-06T02:14:57.959Z,0
2023-02-06T02:15:58.169Z,0
2023-02-06T02:16:58.659Z,0
2023-02-06T02:17:58.291Z,0
2023-02-06T02:18:59.210Z,0
2023-02-06T02:20:00.221Z,0
2023-02-06T02:21:00.869Z,0
2023-02-06T02:22:01.517Z,0
2023-02-06T02:23:02.453Z,0
2023-02-06T02:24:03.113Z,0
2023-02-06T02:25:04.597Z,0
2023-02-06T02:26:04.636Z,0
2023-02-06T02:27:05.167Z,0
2023-02-06T02:28:05.397Z,0
2023-02-06T02:29:05.977Z,0
2023-02-06T02:30:05.901Z,0
2023-02-06T02:31:07.199Z,0
2023-02-06T02:32:07.773Z,0
2023-02-06T02:33:07.454Z,0
2023-02-06T02:34:08.066Z,0
2023-02-06T02:35:08.997Z,0
2023-02-06T02:36:10.273Z,0
2023-02-06T02:37:10.199Z,0
2023-02-06T02:38:11.407Z,0
2023-02-06T02:39:12.210Z,0
2023-02-06T02:40:13.934Z,0
2023-02-06T02:41:12.872Z,0
2023-02-06T02:42:14.391Z,0
2023-02-06T02:43:14.650Z,0
2023-02-06T02:44:15.574Z,0
2023-02-06T02:45:15.797Z,0
2023-02-06T02:46:15.721Z,0
2023-02-06T02:47:16.690Z,0
2023-02-06T02:48:16.616Z,0
2023-02-06T02:49:16.962Z,0
2023-02-06T02:50:18.453Z,0
2023-02-06T02:51:18.104Z,0
2023-02-06T02:52:18.730Z,0
2023-02-06T02:53:19.061Z,0
2023-02-06T02:54:20.273Z,0
2023-02-06T02:55:20.552Z,0
2023-02-06T02:56:21.572Z,0
2023-02-06T02:57:22.890Z,0
2023-02-06T02:58:23.130Z,0
2023-02-06T02:59:23.338Z,0
2023-02-06T03:00:23.546Z,0
2023-02-06T03:01:23.708Z,0
2023-02-06T03:02:24.090Z,0
2023-02-06T03:03:25.053Z,0
2023-02-06T03:04:24.992Z,0
2023-02-06T03:05:24.921Z,0
2023-02-06T03:06:25.685Z,0
2023-02-06T03:07:27.165Z,0
2023-02-06T03:08:27.662Z,0
2023-02-06T03:09:27.302Z,0
2023-02-06T03:10:28.802Z,0
2023-02-06T03:11:29.021Z,0
2023-02-06T03:12:29.995Z,0
2023-02-06T03:13:30.443Z,0
2023-02-06T03:14:31.327Z,0
2023-02-06T03:15:32.572Z,0
2023-02-06T03:16:33.626Z,0
2023-02-06T03:17:33.878Z,0
2023-02-06T03:18:34.206Z,0
2023-02-06T03:19:35.106Z,0
2023-02-06T03:20:35.364Z,0
2023-02-06T03:21:34.999Z,0
2023-02-06T03:22:35.900Z,0
2023-02-06T03:23:37.569Z,0
2023-02-06T03:24:37.855Z,0
2023-02-06T03:25:38.912Z,0
2023-02-06T03:26:38.958Z,0
2023-02-06T03:27:40.219Z,0
2023-02-06T03:28:40.832Z,0
2023-02-06T03:29:40.745Z,0
2023-02-06T03:30:41.144Z,0
2023-02-06T03:31:40.971Z,0
2023-02-06T03:32:42.280Z,0
2023-02-06T03:33:42.180Z,0
2023-02-06T03:34:43.362Z,0
2023-02-06T03:35:43.932Z,0
2023-02-06T03:36:44.074Z,0
2023-02-06T03:37:44.700Z,0
2023-02-06T03:38:45.306Z,0
2023-02-06T03:39:46.581Z,0
2023-02-06T03:40:47.777Z,0
2023-02-06T03:41:48.268Z,0
2023-02-06T03:42:48.542Z,0
2023-02-06T03:43:49.072Z,0
2023-02-06T03:44:49.271Z,0
2023-02-06T03:45:49.941Z,0
2023-02-06T03:46:50.316Z,0
2023-02-06T03:47:50.817Z,0
2023-02-06T03:48:51.744Z,0
2023-02-06T03:49:51.662Z,0
2023-02-06T03:50:52.601Z,0
2023-02-06T03:51:52.795Z,0
2023-02-06T03:52:53.434Z,0
2023-02-06T03:53:53.789Z,0
2023-02-06T03:54:55.277Z,0
2023-02-06T03:55:55.899Z,0
2023-02-06T03:56:56.658Z,0
2023-02-06T03:57:57.923Z,0
2023-02-06T03:58:57.624Z,0
2023-02-06T03:59:58.839Z,0
2023-02-06T04:00:59.532Z,0
2023-02-06T04:02:00.943Z,0
2023-02-06T04:03:01.220Z,0
2023-02-06T04:04:01.713Z,0
2023-02-06T04:05:02.335Z,0
2023-02-06T04:06:03.244Z,0
2023-02-06T04:07:04.308Z,0
2023-02-06T04:08:04.508Z,0
2023-02-06T04:09:04.713Z,0
2023-02-06T04:10:05.627Z,0
2023-02-06T04:11:06.261Z,0
2023-02-06T04:12:07.475Z,0
2023-02-06T04:13:08.008Z,0
2023-02-06T04:14:07.962Z,0
2023-02-06T04:15:08.585Z,0
2023-02-06T04:16:09.980Z,0
2023-02-06T04:17:09.857Z,0
2023-02-06T04:18:12.785Z,0
2023-02-06T04:19:11.688Z,0
2023-02-06T04:20:11.943Z,0
2023-02-06T04:21:13.170Z,0
2023-02-06T04:22:13.400Z,0
2023-02-06T04:23:14.036Z,0
2023-02-06T04:24:15.259Z,0
2023-02-06T04:25:15.480Z,0
2023-02-06T04:26:15.411Z,0
2023-02-06T04:27:16.178Z,0
2023-02-06T04:28:17.539Z,0
2023-02-06T04:29:17.308Z,0
2023-02-06T04:30:18.425Z,0
2023-02-06T04:31:19.597Z,0
2023-02-06T04:32:20.148Z,0
2023-02-06T04:33:20.347Z,0
2023-02-06T04:34:20.843Z,0
2023-02-06T04:35:21.761Z,0
2023-02-06T04:36:22.386Z,0
2023-02-06T04:37:22.947Z,0
2023-02-06T04:38:23.138Z,0
2023-02-06T04:39:23.628Z,0
2023-02-06T04:40:23.543Z,0
2023-02-06T04:41:24.465Z,0
2023-02-06T04:42:24.657Z,0
2023-02-06T04:43:25.182Z,0
2023-02-06T04:44:24.877Z,0
2023-02-06T04:45:26.356Z,0
2023-02-06T04:46:26.714Z,0
2023-02-06T04:47:27.071Z,0
2023-02-06T04:48:27.732Z,0
2023-02-06T04:49:28.375Z,0
2023-02-06T04:50:29.596Z,0
2023-02-06T04:51:29.548Z,0
2023-02-06T04:52:30.744Z,0
2023-02-06T04:53:31.076Z,0
2023-02-06T04:54:32.792Z,0
2023-02-06T04:55:32.738Z,0
2023-02-06T04:56:32.972Z,0
2023-02-06T04:57:34.276Z,0
2023-02-06T04:58:34.630Z,0
2023-02-06T04:59:34.586Z,0
2023-02-06T05:00:36.946Z,0
2023-02-06T05:01:36.427Z,0
2023-02-06T05:02:37.091Z,0
2023-02-06T05:03:37.094Z,0
2023-02-06T05:04:38.033Z,0
2023-02-06T05:05:40.063Z,0
2023-02-06T05:06:39.696Z,0
2023-02-06T05:07:40.752Z,0
2023-02-06T05:08:40.959Z,0
2023-02-06T05:09:41.451Z,0
2023-02-06T05:10:41.664Z,0
2023-02-06T05:11:42.598Z,0
2023-02-06T05:12:42.823Z,0
2023-02-06T05:13:43.365Z,0
2023-02-06T05:14:43.644Z,0
2023-02-06T05:15:45.038Z,0
2023-02-06T05:16:44.223Z,0
2023-02-06T05:17:44.636Z,0
2023-02-06T05:18:45.544Z,0
2023-02-06T05:19:46.146Z,0
2023-02-06T05:20:45.786Z,0
2023-02-06T05:21:46.661Z,0
2023-02-06T05:22:47.154Z,0
2023-02-06T05:23:47.371Z,0
2023-02-06T05:24:47.273Z,0
2023-02-06T05:25:48.477Z,0
2023-02-06T05:26:48.390Z,0
2023-02-06T05:27:49.017Z,0
2023-02-06T05:28:49.920Z,0
2023-02-06T05:29:49.969Z,0
2023-02-06T05:30:51.245Z,0
2023-02-06T05:31:52.134Z,0
2023-02-06T05:32:52.495Z,0
2023-02-06T05:33:52.932Z,0
2023-02-06T05:34:52.592Z,0
2023-02-06T05:35:53.803Z,0
2023-02-06T05:36:54.283Z,0
2023-02-06T05:37:54.838Z,0
2023-02-06T05:38:55.326Z,0
2023-02-06T05:39:54.701Z,0
2023-02-06T05:40:56.075Z,0
2023-02-06T05:41:56.316Z,0
2023-02-06T05:42:56.550Z,0
2023-02-06T05:43:57.807Z,0
2023-02-06T05:44:57.775Z,0
2023-02-06T05:45:59.006Z,0
2023-02-06T05:46:59.339Z,0
2023-02-06T05:48:00.145Z,0
2023-02-06T05:49:00.789Z,0
2023-02-06T05:50:00.731Z,0
2023-02-06T05:51:01.964Z,0
2023-02-06T05:52:02.201Z,0
2023-02-06T05:53:02.832Z,0
2023-02-06T05:54:03.452Z,0
2023-02-06T05:55:04.080Z,0
2023-02-06T05:56:04.722Z,0
2023-02-06T05:57:05.362Z,0
2023-02-06T05:58:06.308Z,0
2023-02-06T05:59:06.367Z,0
2023-02-06T06:00:06.346Z,0
2023-02-06T06:01:06.022Z,0
2023-02-06T06:02:07.537Z,0
2023-02-06T06:03:07.467Z,0
2023-02-06T06:04:08.834Z,0
2023-02-06T06:05:08.775Z,0
2023-02-06T06:06:08.697Z,0
2023-02-06T06:07:09.885Z,0
2023-02-06T06:08:10.508Z,0
2023-02-06T06:09:10.431Z,0
2023-02-06T06:10:10.629Z,0
2023-02-06T06:11:13.178Z,0
2023-02-06T06:12:11.095Z,4
2023-02-06T06:13:12.298Z,0
2023-02-06T06:14:13.268Z,0
2023-02-06T06:15:13.580Z,4
2023-02-06T06:16:14.054Z,4
2023-02-06T06:17:14.369Z,4
2023-02-06T06:18:14.617Z,4
2023-02-06T06:19:15.828Z,4
2023-02-06T06:20:16.325Z,4
2023-02-06T06:21:16.247Z,8
2023-02-06T06:22:17.453Z,12
2023-02-06T06:23:17.377Z,12
2023-02-06T06:24:18.460Z,12
2023-02-06T06:25:18.683Z,16
2023-02-06T06:26:18.917Z,20
2023-02-06T06:27:19.172Z,20
2023-02-06T06:28:19.754Z,24
2023-02-06T06:29:20.486Z,28
2023-02-06T06:30:20.763Z,32
2023-02-06T06:31:21.918Z,36
2023-02-06T06:32:21.109Z,36
2023-02-06T06:33:21.046Z,40
2023-02-06T06:34:21.815Z,48
2023-02-06T06:35:22.315Z,48
2023-02-06T06:36:25.500Z,56
2023-02-06T06:37:22.985Z,60
2023-02-06T06:38:23.001Z,68
2023-02-06T06:39:23.235Z,68
2023-02-06T06:40:23.848Z,76
2023-02-06T06:41:25.046Z,84
2023-02-06T06:42:26.025Z,88
2023-02-06T06:43:25.931Z,96
2023-02-06T06:44:27.513Z,100
2023-02-06T06:45:28.213Z,108
2023-02-06T06:46:28.539Z,116
2023-02-06T06:47:29.551Z,128
2023-02-06T06:48:29.610Z,140
2023-02-06T06:49:30.840Z,148
2023-02-06T06:50:31.334Z,156
2023-02-06T06:51:31.096Z,164
2023-02-06T06:52:36.933Z,172
2023-02-06T06:53:32.849Z,180
2023-02-06T06:54:33.063Z,184
2023-02-06T06:55:33.279Z,188
2023-02-06T06:56:33.243Z,196
2023-02-06T06:57:34.466Z,200
2023-02-06T06:58:34.772Z,208
2023-02-06T06:59:35.464Z,216
2023-02-06T07:00:35.770Z,224
2023-02-06T07:01:35.914Z,232
2023-02-06T07:02:35.845Z,240
2023-02-06T07:03:37.472Z,248
2023-02-06T07:04:37.380Z,260
2023-02-06T07:05:38.490Z,264
2023-02-06T07:06:39.210Z,272
2023-02-06T07:07:40.358Z,276
2023-02-06T07:08:40.972Z,284
2023-02-06T07:09:41.653Z,296
2023-02-06T07:10:42.576Z,312
2023-02-06T07:11:43.046Z,324
2023-02-06T07:12:43.569Z,340
2023-02-06T07:13:43.218Z,352
2023-02-06T07:14:44.658Z,376
2023-02-06T07:15:45.614Z,408
2023-02-06T07:16:46.330Z,444
2023-02-06T07:17:46.693Z,476
2023-02-06T07:18:47.408Z,508
2023-02-06T07:19:47.618Z,568
2023-02-06T07:20:48.520Z,608
2023-02-06T07:21:48.477Z,620
2023-02-06T07:22:50.003Z,576
2023-02-06T07:23:49.675Z,540
2023-02-06T07:24:50.681Z,536
2023-02-06T07:25:51.127Z,548
2023-02-06T07:26:52.071Z,556
2023-02-06T07:27:52.638Z,580
2023-02-06T07:28:52.944Z,604
2023-02-06T07:29:54.201Z,604
2023-02-06T07:30:55.157Z,612
2023-02-06T07:31:55.190Z,612
2023-02-06T07:32:55.873Z,616
2023-02-06T07:33:55.486Z,628
2023-02-06T07:34:56.685Z,644
2023-02-06T07:35:57.624Z,660
2023-02-06T07:36:57.972Z,700
2023-02-06T07:37:58.463Z,760
2023-02-06T07:38:58.176Z,872
2023-02-06T07:39:59.367Z,1568
2023-02-06T07:40:59.863Z,1924
2023-02-06T07:42:00.163Z,1992
2023-02-06T07:43:00.365Z,1288
2023-02-06T07:44:01.272Z,872
2023-02-06T07:45:02.553Z,920
2023-02-06T07:46:03.029Z,988
2023-02-06T07:47:03.344Z,1684
2023-02-06T07:48:03.957Z,2080
2023-02-06T07:49:03.748Z,2832
2023-02-06T07:50:04.646Z,2868
2023-02-06T07:51:05.295Z,2800
2023-02-06T07:52:05.949Z,2648
2023-02-06T07:53:07.482Z,2224
2023-02-06T07:54:07.751Z,2216
2023-02-06T07:55:07.689Z,2760
2023-02-06T07:56:08.903Z,2940
2023-02-06T07:57:08.834Z,3624
2023-02-06T07:58:10.043Z,4336
2023-02-06T07:59:10.051Z,5052
2023-02-06T08:00:11.406Z,5300
2023-02-06T08:01:11.886Z,5056
2023-02-06T08:02:12.587Z,4732
2023-02-06T08:03:12.564Z,4600
2023-02-06T08:04:12.954Z,4604
2023-02-06T08:05:13.713Z,4096
2023-02-06T08:06:13.343Z,3356
2023-02-06T08:07:14.548Z,2924
2023-02-06T08:08:14.750Z,2576
2023-02-06T08:09:14.506Z,2052
2023-02-06T08:10:15.892Z,2340
2023-02-06T08:11:16.816Z,1964
2023-02-06T08:12:17.497Z,1572
2023-02-06T08:13:17.466Z,1504
2023-02-06T08:14:17.418Z,1440
2023-02-06T08:15:17.616Z,1460
2023-02-06T08:16:18.046Z,1556
2023-02-06T08:17:19.750Z,1588
2023-02-06T08:18:19.333Z,1592
2023-02-06T08:19:19.978Z,1588
2023-02-06T08:20:20.233Z,1608
2023-02-06T08:21:20.663Z,1684
2023-02-06T08:22:20.587Z,1804
2023-02-06T08:23:21.172Z,1996
2023-02-06T08:24:21.677Z,2036
2023-02-06T08:25:22.310Z,2220
2023-02-06T08:26:23.580Z,2112
2023-02-06T08:27:23.821Z,2124
2023-02-06T08:28:24.632Z,2164
2023-02-06T08:29:24.812Z,2072
2023-02-06T08:30:25.969Z,1932
2023-02-06T08:31:26.955Z,1704
2023-02-06T08:32:26.497Z,1516
2023-02-06T08:33:26.713Z,1440
2023-02-06T08:34:26.949Z,1340
2023-02-06T08:35:26.869Z,1276
2023-02-06T08:36:27.385Z,1232
2023-02-06T08:37:27.868Z,1128
2023-02-06T08:38:28.086Z,1120
2023-02-06T08:39:29.114Z,1156
2023-02-06T08:40:29.515Z,1120
2023-02-06T08:41:29.772Z,1076
2023-02-06T08:42:30.709Z,996
2023-02-06T08:43:33.074Z,892
2023-02-06T08:44:30.828Z,824
2023-02-06T08:45:32.083Z,764
2023-02-06T08:46:33.010Z,728
2023-02-06T08:47:33.258Z,716
2023-02-06T08:48:33.765Z,728
2023-02-06T08:49:33.785Z,736
2023-02-06T08:50:34.371Z,736
2023-02-06T08:51:34.417Z,728
2023-02-06T08:52:34.632Z,692
2023-02-06T08:53:35.848Z,680
2023-02-06T08:54:39.096Z,672
2023-02-06T08:55:36.651Z,668
2023-02-06T08:56:37.369Z,664
2023-02-06T08:57:37.857Z,656
2023-02-06T08:58:38.896Z,660
2023-02-06T08:59:38.955Z,656
2023-02-06T09:00:39.742Z,644
2023-02-06T09:01:41.377Z,624
2023-02-06T09:02:41.982Z,600
2023-02-06T09:03:42.201Z,596
2023-02-06T09:04:42.440Z,620
2023-02-06T09:05:43.636Z,640
2023-02-06T09:06:42.853Z,644
2023-02-06T09:07:43.770Z,628
2023-02-06T09:08:44.693Z,596
2023-02-06T09:09:45.144Z,568
2023-02-06T09:10:45.397Z,552
2023-02-06T09:11:45.621Z,556
2023-02-06T09:12:45.981Z,572
2023-02-06T09:13:49.083Z,604
2023-02-06T09:14:47.880Z,620
2023-02-06T09:15:49.789Z,616
2023-02-06T09:16:50.098Z,612
2023-02-06T09:17:50.286Z,584
2023-02-06T09:18:51.757Z,552
2023-02-06T09:19:50.454Z,548
2023-02-06T09:20:51.654Z,528
2023-02-06T09:21:52.602Z,524
2023-02-06T09:22:52.538Z,536
2023-02-06T09:23:53.495Z,540
2023-02-06T09:24:54.724Z,544
2023-02-06T09:25:54.931Z,552
2023-02-06T09:27:10.318Z,556
2023-02-06T09:27:57.028Z,548
2023-02-06T09:28:55.496Z,540
2023-02-06T09:29:56.254Z,540
2023-02-06T09:30:57.715Z,540
2023-02-06T09:31:57.979Z,536
2023-02-06T09:32:58.277Z,528
2023-02-06T09:33:59.319Z,532
2023-02-06T09:35:00.710Z,536
2023-02-06T09:35:59.931Z,540
2023-02-06T09:37:00.262Z,556
2023-02-06T09:38:00.759Z,580
2023-02-06T09:39:00.989Z,600
2023-02-06T09:40:01.300Z,620
2023-02-06T09:41:02.013Z,628
2023-02-06T09:42:02.934Z,636
2023-02-06T09:43:02.868Z,640
2023-02-06T09:44:03.849Z,636
2023-02-06T09:45:03.775Z,636
2023-02-06T09:46:05.347Z,636
2023-02-06T09:47:05.423Z,632
2023-02-06T09:48:05.617Z,632
2023-02-06T09:49:06.176Z,624
2023-02-06T09:50:06.244Z,620
2023-02-06T09:51:06.875Z,608
2023-02-06T09:52:08.114Z,596
2023-02-06T09:53:08.052Z,588
2023-02-06T09:54:08.456Z,600
2023-02-06T09:55:08.953Z,608
2023-02-06T09:56:09.445Z,620
2023-02-06T09:57:09.055Z,624
2023-02-06T09:58:10.287Z,640
2023-02-06T09:59:11.253Z,660
2023-02-06T10:00:11.684Z,700
2023-02-06T10:01:12.259Z,716
2023-02-06T10:02:12.958Z,720
2023-02-06T10:03:14.132Z,728
2023-02-06T10:04:14.638Z,740
2023-02-06T10:05:14.669Z,748
2023-02-06T10:06:15.023Z,764
2023-02-06T10:07:15.684Z,776
2023-02-06T10:08:16.881Z,780
2023-02-06T10:09:16.811Z,768
2023-02-06T10:10:17.529Z,736
2023-02-06T10:11:18.752Z,700
2023-02-06T10:12:18.960Z,680
2023-02-06T10:13:19.912Z,664
2023-02-06T10:14:21.172Z,664
2023-02-06T10:15:21.670Z,672
2023-02-06T10:16:23.588Z,684
2023-02-06T10:17:22.952Z,692
2023-02-06T10:18:23.179Z,704
2023-02-06T10:19:23.445Z,716
2023-02-06T10:20:23.743Z,720
2023-02-06T10:21:23.780Z,720
2023-02-06T10:22:24.996Z,716
2023-02-06T10:23:24.921Z,716
2023-02-06T10:24:25.944Z,732
2023-02-06T10:25:26.645Z,760
2023-02-06T10:26:27.915Z,804
2023-02-06T10:27:28.154Z,844
2023-02-06T10:28:29.434Z,868
2023-02-06T10:29:29.434Z,848
2023-02-06T10:30:30.660Z,828
2023-02-06T10:31:31.966Z,836
2023-02-06T10:32:31.448Z,876
2023-02-06T10:33:36.984Z,936
2023-02-06T10:34:31.921Z,976
2023-02-06T10:35:33.156Z,1028
2023-02-06T10:36:33.830Z,1076
2023-02-06T10:37:34.387Z,1116
2023-02-06T10:38:34.650Z,1132
2023-02-06T10:39:34.617Z,1140
2023-02-06T10:40:35.900Z,1160
2023-02-06T10:41:36.133Z,1180
2023-02-06T10:42:36.365Z,1172
2023-02-06T10:43:36.937Z,1136
2023-02-06T10:44:37.928Z,1092
2023-02-06T10:45:38.412Z,1056
2023-02-06T10:46:38.904Z,1044
2023-02-06T10:47:39.668Z,1068
2023-02-06T10:48:39.597Z,1128
2023-02-06T10:49:41.251Z,1220
2023-02-06T10:50:41.540Z,1292
2023-02-06T10:51:41.906Z,1328
2023-02-06T10:52:43.131Z,1372
2023-02-06T10:53:44.061Z,1384
2023-02-06T10:54:45.090Z,1372
2023-02-06T10:55:47.128Z,1308
2023-02-06T10:56:46.829Z,1256
2023-02-06T10:57:47.761Z,1236
2023-02-06T10:58:49.032Z,1252
2023-02-06T10:59:49.627Z,1256
2023-02-06T11:00:50.296Z,1272
2023-02-06T11:01:51.512Z,1292
2023-02-06T11:03:10.644Z,1376
2023-02-06T11:03:51.883Z,1428
2023-02-06T11:04:52.167Z,1544
2023-02-06T11:05:52.775Z,1696
2023-02-06T11:06:52.762Z,1824
2023-02-06T11:07:53.743Z,1860
2023-02-06T11:08:54.920Z,1860
2023-02-06T11:09:54.900Z,1876
2023-02-06T11:10:55.645Z,1980
2023-02-06T11:11:58.423Z,2208
2023-02-06T11:12:56.641Z,2580
2023-02-06T11:13:57.577Z,2648
2023-02-06T11:14:58.297Z,3084
2023-02-06T11:15:58.964Z,2584
2023-02-06T11:17:00.646Z,2532
2023-02-06T11:18:00.405Z,2664
2023-02-06T11:19:01.406Z,2980
2023-02-06T11:20:02.966Z,3652
2023-02-06T11:21:06.657Z,4408
2023-02-06T11:22:04.257Z,6080
2023-02-06T11:23:05.083Z,11988
2023-02-06T11:24:05.045Z,11656
2023-02-06T11:25:05.594Z,11724
2023-02-06T11:26:05.962Z,10140
2023-02-06T11:27:07.202Z,7288
2023-02-06T11:28:08.571Z,9740
2023-02-06T11:29:08.274Z,13008
2023-02-06T11:30:08.814Z,13016
2023-02-06T11:31:09.363Z,11664
2023-02-06T11:32:10.023Z,5568
2023-02-06T11:33:16.254Z,7636
2023-02-06T11:34:10.769Z,7336
2023-02-06T11:35:10.997Z,3008
2023-02-06T11:36:11.652Z,2512
2023-02-06T11:37:12.307Z,2216
2023-02-06T11:38:12.800Z,2288
2023-02-06T11:39:12.750Z,2316
2023-02-06T11:40:13.773Z,2312
2023-02-06T11:41:14.721Z,2368
2023-02-06T11:42:15.004Z,2352
2023-02-06T11:43:15.937Z,2280
2023-02-06T11:44:17.171Z,2044
2023-02-06T11:45:17.136Z,1824
2023-02-06T11:46:18.845Z,1696
2023-02-06T11:47:19.559Z,1600
2023-02-06T11:48:19.616Z,1496
2023-02-06T11:49:19.906Z,1368
2023-02-06T11:50:20.450Z,1268
2023-02-06T11:51:21.064Z,1184
2023-02-06T11:52:21.264Z,1092
2023-02-06T11:53:21.519Z,1036
2023-02-06T11:54:21.458Z,1028
2023-02-06T11:55:22.682Z,1004
2023-02-06T11:56:22.935Z,956
2023-02-06T11:57:23.204Z,932
2023-02-06T11:58:23.135Z,908
2023-02-06T11:59:23.476Z,868
2023-02-06T12:00:25.058Z,820
2023-02-06T12:01:25.390Z,792
2023-02-06T12:02:25.608Z,808
2023-02-06T12:03:26.331Z,844
2023-02-06T12:04:26.691Z,848
2023-02-06T12:05:26.947Z,816
2023-02-06T12:06:27.645Z,768
2023-02-06T12:07:28.600Z,728
2023-02-06T12:08:29.577Z,672
2023-02-06T12:09:30.526Z,624
2023-02-06T12:10:31.487Z,596
2023-02-06T12:11:32.109Z,588
2023-02-06T12:12:32.372Z,576
2023-02-06T12:13:32.610Z,568
2023-02-06T12:14:33.824Z,560
2023-02-06T12:15:57.356Z,572
2023-02-06T12:16:35.443Z,600
2023-02-06T12:17:35.760Z,648
2023-02-06T12:18:36.214Z,700
2023-02-06T12:19:37.433Z,728
2023-02-06T12:20:37.773Z,716
2023-02-06T12:21:37.469Z,704
2023-02-06T12:22:38.819Z,692
2023-02-06T12:23:40.037Z,668
2023-02-06T12:24:39.378Z,644
2023-02-06T12:25:41.955Z,612
2023-02-06T12:26:41.160Z,580
2023-02-06T12:27:44.889Z,556
2023-02-06T12:28:41.867Z,536
2023-02-06T12:29:42.350Z,512
2023-02-06T12:30:42.745Z,488
2023-02-06T12:31:44.616Z,472
2023-02-06T12:32:44.259Z,468
2023-02-06T12:33:44.788Z,472
2023-02-06T12:34:45.234Z,480
2023-02-06T12:35:46.806Z,496
2023-02-06T12:36:47.007Z,504
2023-02-06T12:37:48.239Z,508
2023-02-06T12:38:48.474Z,512
2023-02-06T12:39:48.982Z,528
2023-02-06T12:40:49.279Z,540
2023-02-06T12:41:49.025Z,532
2023-02-06T12:42:50.265Z,496
2023-02-06T12:43:50.843Z,460
2023-02-06T12:44:51.524Z,428
2023-02-06T12:45:52.807Z,400
2023-02-06T12:46:52.844Z,388
2023-02-06T12:47:54.439Z,380
2023-02-06T12:48:54.958Z,380
2023-02-06T12:49:54.914Z,384
2023-02-06T12:50:56.165Z,388
2023-02-06T12:51:56.579Z,380
2023-02-06T12:52:57.267Z,372
2023-02-06T12:53:58.564Z,368
2023-02-06T12:54:58.479Z,368
2023-02-06T12:56:00.742Z,368
2023-02-06T12:56:59.751Z,372
2023-02-06T12:58:00.975Z,372
2023-02-06T12:59:02.091Z,364
2023-02-06T13:00:09.067Z,356
2023-02-06T13:01:02.715Z,352
2023-02-06T13:02:04.363Z,356
2023-02-06T13:03:05.161Z,360
2023-02-06T13:04:05.859Z,364
2023-02-06T13:05:06.162Z,372
2023-02-06T13:06:06.236Z,396
2023-02-06T13:07:07.450Z,416
2023-02-06T13:08:08.424Z,432
2023-02-06T13:09:08.731Z,440
2023-02-06T13:10:09.012Z,444
2023-02-06T13:11:09.527Z,436
2023-02-06T13:12:10.298Z,428
2023-02-06T13:13:10.843Z,424
2023-02-06T13:14:11.063Z,424
2023-02-06T13:15:11.744Z,432
2023-02-06T13:16:13.209Z,448
2023-02-06T13:17:13.834Z,460
2023-02-06T13:18:13.902Z,460
2023-02-06T13:19:14.435Z,460
2023-02-06T13:20:14.879Z,456
2023-02-06T13:21:15.678Z,440
2023-02-06T13:22:16.781Z,412
2023-02-06T13:23:16.417Z,384
2023-02-06T13:24:17.342Z,364
2023-02-06T13:25:19.277Z,364
2023-02-06T13:26:17.937Z,368
2023-02-06T13:27:18.574Z,364
2023-02-06T13:28:18.432Z,356
2023-02-06T13:29:19.035Z,352
2023-02-06T13:30:20.125Z,348
2023-02-06T13:31:22.490Z,344
2023-02-06T13:32:21.495Z,336
2023-02-06T13:33:21.746Z,336
2023-02-06T13:34:21.708Z,336
2023-02-06T13:35:22.653Z,332
2023-02-06T13:36:23.213Z,316
2023-02-06T13:37:23.730Z,304
2023-02-06T13:38:23.988Z,292
2023-02-06T13:39:23.617Z,288
2023-02-06T13:40:24.637Z,288
2023-02-06T13:41:25.065Z,288
2023-02-06T13:42:26.370Z,280
2023-02-06T13:43:26.612Z,284
2023-02-06T13:44:27.274Z,292
2023-02-06T13:45:28.211Z,296
2023-02-06T13:46:28.628Z,296
2023-02-06T13:47:28.897Z,292
2023-02-06T13:48:29.440Z,292
2023-02-06T13:49:29.953Z,284
2023-02-06T13:50:29.915Z,276
2023-02-06T13:51:31.439Z,272
2023-02-06T13:52:31.486Z,260
2023-02-06T13:53:32.709Z,252
2023-02-06T13:54:32.923Z,240
2023-02-06T13:55:34.087Z,236
2023-02-06T13:56:34.677Z,236
2023-02-06T13:57:34.385Z,232
2023-02-06T13:58:35.607Z,232
2023-02-06T13:59:35.834Z,228
2023-02-06T14:00:36.132Z,228
2023-02-06T14:01:37.060Z,224
2023-02-06T14:02:37.529Z,220
2023-02-06T14:03:37.893Z,220
2023-02-06T14:04:37.879Z,216
2023-02-06T14:05:38.931Z,220
2023-02-06T14:06:39.211Z,212
2023-02-06T14:07:40.137Z,204
2023-02-06T14:08:40.634Z,196
2023-02-06T14:09:43.050Z,192
2023-02-06T14:10:41.130Z,196
2023-02-06T14:11:42.051Z,192
2023-02-06T14:12:41.650Z,184
2023-02-06T14:13:43.333Z,176
2023-02-06T14:14:43.860Z,176
2023-02-06T14:15:45.006Z,172